Inwood, Canada
Current Conditions -  °F | °C
As of 5:00 AM on Friday 24 Oct 2014 (Local Time) from CYWG Reporting Station
Broken Clouds Broken Clouds  
Wind Chill: 44°   Ceiling: 23000
Heat Index: 46°   Visibility: 15mi
Dew Point: 37°   Wind: 5mph
Humidity: 71%   Direction: 160°SSE
Pressure: 29.68"   Gusts: NA
Location:  50.5°N, 97.5°W
Report Text: CYWG 241000Z 16004KT 130V220 15SM BKN230 08/03 A2968 RMK CI7 SLP055
Loading
Personal Weather Stations






























Interactive Weather Map
Tropical Storm Tracking
New forecast layout! Learn more

10-Day Weather Forecast

Advertisements
Track Severe Weather on mobile